Time;durP1;ratioP1;P1;durP2;ratioP2;P2;SDS_P1;SDS_P2;PMS_P1;PMS_P2;Temp;Humidity;BMP_temperature;BMP_pressure;BME280_temperature;BME280_humidity;BME280_pressure;Samples;Min_cycle;Max_cycle;Signal;HPM_P1;HPM_P2
2023/12/19 00:02:08;;;;;;;0.10;0.10;;;;;;;;;;4970412;28;20417;-77
2023/12/19 00:04:36;;;;;;;0.10;0.10;;;;;;;;;;4986847;28;20576;-77
2023/12/19 00:07:03;;;;;;;0.10;0.10;;;;;;;;;;4985874;28;20050;-77
2023/12/19 00:09:29;;;;;;;0.65;0.65;;;;;;;;;;4989459;28;20051;-77
2023/12/19 00:11:56;;;;;;;0.65;0.65;;;;;;;;;;4989684;28;20129;-77
2023/12/19 00:14:22;;;;;;;0.20;0.20;;;;;;;;;;4972426;28;20055;-77
2023/12/19 00:16:49;;;;;;;0.28;0.28;;;;;;;;;;4971567;28;20059;-77
2023/12/19 00:19:15;;;;;;;0.40;0.40;;;;;;;;;;4988461;28;20141;-77
2023/12/19 00:21:42;;;;;;;0.63;0.63;;;;;;;;;;4973220;28;20059;-77
2023/12/19 00:24:09;;;;;;;0.20;0.20;;;;;;;;;;4972156;28;20137;-77
2023/12/19 00:26:35;;;;;;;0.40;0.40;;;;;;;;;;4990649;28;20055;-77
2023/12/19 00:29:02;;;;;;;0.20;0.20;;;;;;;;;;4972353;28;20051;-77
2023/12/19 00:31:28;;;;;;;1.88;0.75;;;;;;;;;;4989431;28;20100;-78
2023/12/19 00:33:55;;;;;;;0.20;0.20;;;;;;;;;;4976274;28;20094;-77
2023/12/19 00:36:22;;;;;;;0.30;0.30;;;;;;;;;;4971917;28;20059;-77
2023/12/19 00:38:49;;;;;;;0.22;0.22;;;;;;;;;;4971906;28;20554;-77
2023/12/19 00:41:16;;;;;;;0.15;0.15;;;;;;;;;;4990010;28;20094;-77
2023/12/19 00:43:43;;;;;;;1.08;1.00;;;;;;;;;;4984472;28;20097;-77
2023/12/19 00:46:09;;;;;;;0.20;0.20;;;;;;;;;;4980419;28;20142;-77
2023/12/19 00:48:36;;;;;;;0.10;0.10;;;;;;;;;;4988584;28;20091;-77
2023/12/19 00:51:07;;;;;;;4.47;2.78;;;;;;;;;;4972814;28;20055;-77
2023/12/19 00:53:34;;;;;;;0.10;0.10;;;;;;;;;;4990463;28;20143;-77
2023/12/19 00:56:00;;;;;;;0.10;0.10;;;;;;;;;;4985347;28;20050;-77
2023/12/19 00:58:27;;;;;;;0.30;0.30;;;;;;;;;;4972239;28;20126;-77
2023/12/19 01:00:53;;;;;;;0.10;0.10;;;;;;;;;;4987689;28;20082;-77
2023/12/19 01:03:20;;;;;;;3.22;1.67;;;;;;;;;;4991922;28;20055;-77
2023/12/19 01:05:46;;;;;;;0.20;0.20;;;;;;;;;;5000788;28;20055;-77
2023/12/19 01:08:13;;;;;;;0.10;0.10;;;;;;;;;;4988576;28;20143;-77
2023/12/19 01:10:40;;;;;;;1.58;1.23;;;;;;;;;;4968340;28;20185;-77
2023/12/19 01:13:06;;;;;;;0.10;0.10;;;;;;;;;;4974429;28;20059;-77
2023/12/19 01:15:33;;;;;;;1.13;0.88;;;;;;;;;;4990807;28;20553;-77
2023/12/19 01:17:59;;;;;;;0.52;0.52;;;;;;;;;;4991378;28;20055;-77
2023/12/19 01:20:26;;;;;;;0.32;0.32;;;;;;;;;;4992308;28;20450;-77
2023/12/19 01:22:53;;;;;;;1.17;0.90;;;;;;;;;;4975858;28;20062;-77
2023/12/19 01:25:19;;;;;;;0.20;0.20;;;;;;;;;;4993567;28;20062;-78
2023/12/19 01:27:45;;;;;;;0.10;0.10;;;;;;;;;;4973223;28;20051;-77
2023/12/19 01:30:12;;;;;;;0.10;0.10;;;;;;;;;;4975708;28;20063;-77
2023/12/19 01:32:39;;;;;;;0.10;0.10;;;;;;;;;;4993729;28;20113;-77
2023/12/19 01:35:06;;;;;;;0.10;0.10;;;;;;;;;;4993720;28;20061;-77
2023/12/19 01:37:33;;;;;;;1.15;1.05;;;;;;;;;;4992718;28;20065;-77
2023/12/19 01:39:59;;;;;;;0.20;0.20;;;;;;;;;;4975152;28;20884;-77
2023/12/19 01:42:25;;;;;;;0.30;0.30;;;;;;;;;;4976839;28;20062;-77
2023/12/19 01:45:12;;;;;;;2.92;2.60;;;;;;;;;;4994196;28;20086;-78
2023/12/19 01:47:40;;;;;;;0.13;0.13;;;;;;;;;;4992042;28;20540;-77
2023/12/19 01:50:07;;;;;;;0.55;0.47;;;;;;;;;;4976127;28;20055;-77
2023/12/19 01:52:35;;;;;;;0.10;0.10;;;;;;;;;;4997612;28;20141;-78
2023/12/19 01:55:05;;;;;;;1.55;1.45;;;;;;;;;;4993491;28;20078;-78
2023/12/19 01:57:32;;;;;;;0.10;0.10;;;;;;;;;;4992813;28;20054;-78
2023/12/19 01:59:59;;;;;;;0.25;0.25;;;;;;;;;;4999322;28;20050;-78
2023/12/19 02:02:26;;;;;;;0.20;0.20;;;;;;;;;;4975071;28;20804;-77
2023/12/19 02:04:55;;;;;;;0.15;0.15;;;;;;;;;;4970819;28;20146;-77
2023/12/19 02:07:22;;;;;;;0.32;0.32;;;;;;;;;;4976304;28;20137;-78
2023/12/19 02:09:48;;;;;;;0.75;0.75;;;;;;;;;;4994849;28;20085;-78
2023/12/19 02:12:15;;;;;;;0.57;0.57;;;;;;;;;;4993868;28;20458;-78
2023/12/19 02:14:42;;;;;;;0.32;0.32;;;;;;;;;;4999532;28;20062;-78
2023/12/19 02:17:11;;;;;;;0.63;0.63;;;;;;;;;;4981377;28;20094;-78
2023/12/19 02:19:43;;;;;;;0.70;0.70;;;;;;;;;;4980361;28;20070;-78
2023/12/19 02:22:10;;;;;;;0.20;0.20;;;;;;;;;;5001448;28;20035;-78
2023/12/19 02:24:40;;;;;;;1.15;1.05;;;;;;;;;;4984430;28;20061;-78
2023/12/19 02:27:07;;;;;;;0.10;0.10;;;;;;;;;;4983981;28;20055;-78
2023/12/19 02:29:34;;;;;;;0.35;0.35;;;;;;;;;;4997914;28;20055;-78
2023/12/19 02:32:01;;;;;;;0.15;0.15;;;;;;;;;;4985511;28;20055;-78
2023/12/19 02:34:29;;;;;;;0.95;0.95;;;;;;;;;;4997698;28;20046;-79
2023/12/19 02:36:56;;;;;;;0.60;0.38;;;;;;;;;;4991697;28;20047;-78
2023/12/19 02:39:22;;;;;;;0.35;0.35;;;;;;;;;;4991454;28;20077;-79
2023/12/19 02:41:49;;;;;;;0.20;0.20;;;;;;;;;;4984048;28;20063;-78
2023/12/19 02:44:15;;;;;;;0.20;0.20;;;;;;;;;;4983909;28;20101;-79
2023/12/19 02:46:42;;;;;;;1.10;0.57;;;;;;;;;;5000352;28;20055;-79
2023/12/19 02:49:08;;;;;;;1.02;1.02;;;;;;;;;;5000367;28;20046;-79
2023/12/19 02:51:35;;;;;;;2.83;1.95;;;;;;;;;;5001641;28;20051;-79
2023/12/19 02:54:03;;;;;;;0.22;0.22;;;;;;;;;;5003277;28;20051;-78
2023/12/19 02:56:34;;;;;;;3.92;2.60;;;;;;;;;;4996906;28;20051;-78
2023/12/19 02:59:00;;;;;;;0.22;0.22;;;;;;;;;;4997281;28;20550;-78
2023/12/19 03:01:27;;;;;;;0.65;0.65;;;;;;;;;;4992962;28;20046;-78
2023/12/19 03:03:53;;;;;;;0.10;0.10;;;;;;;;;;4972140;28;20047;-78
2023/12/19 03:06:20;;;;;;;0.15;0.15;;;;;;;;;;4988461;28;20051;-78
2023/12/19 03:08:47;;;;;;;0.15;0.15;;;;;;;;;;4975848;28;20074;-78
2023/12/19 03:11:14;;;;;;;0.50;0.50;;;;;;;;;;4975659;28;20039;-78
2023/12/19 03:13:40;;;;;;;1.95;1.20;;;;;;;;;;4973299;28;20066;-78
2023/12/19 03:16:07;;;;;;;2.00;1.73;;;;;;;;;;4993470;28;20366;-78
2023/12/19 03:18:35;;;;;;;0.40;0.40;;;;;;;;;;4986177;23;20459;-78
2023/12/19 03:21:02;;;;;;;0.70;0.70;;;;;;;;;;4980924;28;20061;-78
2023/12/19 03:23:28;;;;;;;0.22;0.22;;;;;;;;;;4995082;28;20050;-77
2023/12/19 03:25:54;;;;;;;0.60;0.60;;;;;;;;;;4984110;28;20169;-77
2023/12/19 03:28:21;;;;;;;0.10;0.10;;;;;;;;;;4966863;28;20051;-76
2023/12/19 03:30:47;;;;;;;0.32;0.32;;;;;;;;;;4979818;28;20087;-78
2023/12/19 03:33:14;;;;;;;0.20;0.20;;;;;;;;;;4978603;28;20114;-77
2023/12/19 03:35:40;;;;;;;0.22;0.22;;;;;;;;;;4975581;28;20055;-78
2023/12/19 03:38:07;;;;;;;0.80;0.80;;;;;;;;;;4979176;28;20048;-78
2023/12/19 03:40:35;;;;;;;4.03;1.23;;;;;;;;;;4980509;28;20031;-77
2023/12/19 03:43:02;;;;;;;0.22;0.22;;;;;;;;;;4983229;28;20062;-77
2023/12/19 03:45:29;;;;;;;0.25;0.25;;;;;;;;;;4981189;28;20059;-78
2023/12/19 03:47:55;;;;;;;0.10;0.10;;;;;;;;;;4975915;28;20035;-78
2023/12/19 03:50:22;;;;;;;0.20;0.20;;;;;;;;;;4974933;28;20098;-78
2023/12/19 03:52:48;;;;;;;0.22;0.22;;;;;;;;;;4977103;28;20148;-78
2023/12/19 03:55:15;;;;;;;7.82;2.95;;;;;;;;;;4979526;28;20035;-76
2023/12/19 03:57:41;;;;;;;0.10;0.10;;;;;;;;;;4959092;28;20109;-78
2023/12/19 04:00:08;;;;;;;1.05;1.05;;;;;;;;;;4978432;28;20062;-78
2023/12/19 04:02:35;;;;;;;1.00;1.00;;;;;;;;;;4977537;28;20051;-78
2023/12/19 04:05:01;;;;;;;0.30;0.30;;;;;;;;;;4978606;28;20082;-76
2023/12/19 04:07:28;;;;;;;0.10;0.10;;;;;;;;;;4978543;28;20043;-78
2023/12/19 04:09:54;;;;;;;0.10;0.10;;;;;;;;;;4966597;28;20066;-78
2023/12/19 04:12:21;;;;;;;0.75;0.63;;;;;;;;;;4959092;28;20078;-78
2023/12/19 04:14:47;;;;;;;0.13;0.13;;;;;;;;;;4978752;28;20564;-78
2023/12/19 04:17:14;;;;;;;0.30;0.30;;;;;;;;;;4974774;28;20055;-77
2023/12/19 04:19:41;;;;;;;0.20;0.20;;;;;;;;;;4972518;28;20051;-78
2023/12/19 04:22:08;;;;;;;1.52;1.40;;;;;;;;;;4975474;28;20055;-78
2023/12/19 04:24:34;;;;;;;4.28;2.38;;;;;;;;;;4970060;28;20821;-78
2023/12/19 04:27:01;;;;;;;0.10;0.10;;;;;;;;;;4981880;28;20141;-78
2023/12/19 04:29:27;;;;;;;0.35;0.35;;;;;;;;;;4978497;28;21369;-77
2023/12/19 04:31:54;;;;;;;0.15;0.15;;;;;;;;;;4977808;28;20047;-78
2023/12/19 04:34:20;;;;;;;0.17;0.17;;;;;;;;;;4970141;28;20495;-78
2023/12/19 04:36:47;;;;;;;0.10;0.10;;;;;;;;;;4978173;28;20116;-77
2023/12/19 04:39:14;;;;;;;0.35;0.35;;;;;;;;;;4982477;28;20815;-78
2023/12/19 04:41:40;;;;;;;0.28;0.28;;;;;;;;;;4980847;28;20956;-76
2023/12/19 04:44:06;;;;;;;0.28;0.28;;;;;;;;;;4983220;28;20083;-77
2023/12/19 04:46:33;;;;;;;0.10;0.10;;;;;;;;;;4983083;28;20047;-77
2023/12/19 04:48:59;;;;;;;0.10;0.10;;;;;;;;;;4964198;28;20100;-77
2023/12/19 04:51:26;;;;;;;0.10;0.10;;;;;;;;;;4983284;28;20063;-76
2023/12/19 04:53:53;;;;;;;0.10;0.10;;;;;;;;;;4983138;28;20050;-76
2023/12/19 04:56:19;;;;;;;0.20;0.20;;;;;;;;;;4976455;28;20949;-79
2023/12/19 04:58:46;;;;;;;0.10;0.10;;;;;;;;;;4981167;28;20062;-79
2023/12/19 05:01:13;;;;;;;0.13;0.13;;;;;;;;;;4974866;28;20071;-78
2023/12/19 05:03:41;;;;;;;0.38;0.38;;;;;;;;;;4959949;28;20055;-79
2023/12/19 05:06:08;;;;;;;0.20;0.20;;;;;;;;;;4963595;28;20052;-79
2023/12/19 05:08:35;;;;;;;0.20;0.20;;;;;;;;;;4980749;28;20049;-78
2023/12/19 05:11:01;;;;;;;0.10;0.10;;;;;;;;;;4962777;28;20085;-78
2023/12/19 05:13:28;;;;;;;1.15;1.05;;;;;;;;;;4976856;28;20063;-78
2023/12/19 05:15:54;;;;;;;0.20;0.20;;;;;;;;;;4975438;28;20055;-79
2023/12/19 05:18:21;;;;;;;0.30;0.30;;;;;;;;;;4959615;28;20083;-78
2023/12/19 05:20:48;;;;;;;2.17;1.75;;;;;;;;;;4960065;28;20056;-78
2023/12/19 05:23:14;;;;;;;0.52;0.52;;;;;;;;;;4967962;28;20609;-77
2023/12/19 05:25:41;;;;;;;4.53;1.58;;;;;;;;;;4969267;28;20047;-78
2023/12/19 05:28:07;;;;;;;0.63;0.63;;;;;;;;;;4970395;28;20939;-78
2023/12/19 05:30:34;;;;;;;0.25;0.25;;;;;;;;;;4956994;28;20536;-76
2023/12/19 05:33:00;;;;;;;0.10;0.10;;;;;;;;;;4957932;28;20047;-77
2023/12/19 05:35:27;;;;;;;3.33;1.20;;;;;;;;;;4961062;28;20056;-77
2023/12/19 05:37:53;;;;;;;0.10;0.10;;;;;;;;;;4966899;28;20051;-78
2023/12/19 05:40:19;;;;;;;0.10;0.10;;;;;;;;;;4963410;28;20786;-77
2023/12/19 05:42:46;;;;;;;0.20;0.20;;;;;;;;;;4951612;28;20552;-78
2023/12/19 05:45:13;;;;;;;0.52;0.52;;;;;;;;;;4962812;28;20091;-75
2023/12/19 05:47:39;;;;;;;0.10;0.10;;;;;;;;;;4967988;28;20058;-77
2023/12/19 05:50:06;;;;;;;0.10;0.10;;;;;;;;;;4963056;28;20138;-77
2023/12/19 05:52:32;;;;;;;0.10;0.10;;;;;;;;;;4961578;28;20110;-76
2023/12/19 05:55:00;;;;;;;0.10;0.10;;;;;;;;;;4972900;28;20043;-77
2023/12/19 05:57:26;;;;;;;0.20;0.20;;;;;;;;;;4957761;28;20090;-77
2023/12/19 05:59:53;;;;;;;0.10;0.10;;;;;;;;;;4965195;28;20039;-78
2023/12/19 06:02:21;;;;;;;1.50;1.35;;;;;;;;;;4968608;28;20063;-78
2023/12/19 06:04:49;;;;;;;0.20;0.20;;;;;;;;;;4975941;28;20055;-78
2023/12/19 06:07:16;;;;;;;0.10;0.10;;;;;;;;;;4955449;28;20051;-76
2023/12/19 06:09:42;;;;;;;0.65;0.52;;;;;;;;;;4972033;28;20055;-77
2023/12/19 06:12:11;;;;;;;0.10;0.10;;;;;;;;;;4965197;28;20062;-76
2023/12/19 06:14:37;;;;;;;0.38;0.38;;;;;;;;;;4980664;28;20043;-78
2023/12/19 06:17:04;;;;;;;0.10;0.10;;;;;;;;;;4978685;28;20090;-78
2023/12/19 06:19:30;;;;;;;0.10;0.10;;;;;;;;;;4975612;28;20058;-78
2023/12/19 06:21:57;;;;;;;0.20;0.20;;;;;;;;;;4975694;28;20070;-78
2023/12/19 06:24:24;;;;;;;0.40;0.40;;;;;;;;;;4977293;28;20163;-78
2023/12/19 06:26:50;;;;;;;0.65;0.65;;;;;;;;;;4976028;28;20374;-78
2023/12/19 06:29:17;;;;;;;0.52;0.52;;;;;;;;;;4973909;28;20089;-78
2023/12/19 06:31:44;;;;;;;0.35;0.35;;;;;;;;;;4973286;28;20052;-78
2023/12/19 06:34:10;;;;;;;0.10;0.10;;;;;;;;;;4977815;28;20480;-78
2023/12/19 06:36:38;;;;;;;0.10;0.10;;;;;;;;;;4967254;28;20061;-78
2023/12/19 06:39:06;;;;;;;0.40;0.40;;;;;;;;;;4980069;28;20098;-78
2023/12/19 06:41:32;;;;;;;0.10;0.10;;;;;;;;;;4978515;28;20059;-78
2023/12/19 06:43:59;;;;;;;0.32;0.32;;;;;;;;;;4981405;28;20119;-78
2023/12/19 06:46:25;;;;;;;0.10;0.10;;;;;;;;;;4974173;28;20043;-76
2023/12/19 06:48:55;;;;;;;0.47;0.47;;;;;;;;;;4974950;28;20146;-79
2023/12/19 06:51:22;;;;;;;0.30;0.30;;;;;;;;;;4968257;28;20063;-78
2023/12/19 06:53:50;;;;;;;0.20;0.20;;;;;;;;;;4981476;28;20051;-78
2023/12/19 06:56:16;;;;;;;0.20;0.20;;;;;;;;;;4981522;28;20051;-78
2023/12/19 06:58:43;;;;;;;0.20;0.20;;;;;;;;;;4975246;28;21542;-78
2023/12/19 07:01:09;;;;;;;0.55;0.55;;;;;;;;;;4974733;28;20066;-78
2023/12/19 07:03:36;;;;;;;0.10;0.10;;;;;;;;;;4974015;28;20055;-79
2023/12/19 07:06:03;;;;;;;0.25;0.25;;;;;;;;;;4969883;28;20055;-79
2023/12/19 07:08:32;;;;;;;0.10;0.10;;;;;;;;;;4974484;28;20059;-78
2023/12/19 07:10:58;;;;;;;0.68;0.68;;;;;;;;;;4973600;28;20059;-79
2023/12/19 07:13:25;;;;;;;0.22;0.15;;;;;;;;;;4980209;28;20050;-79
2023/12/19 07:15:51;;;;;;;1.35;0.65;;;;;;;;;;4974707;28;20150;-79
2023/12/19 07:18:18;;;;;;;0.10;0.10;;;;;;;;;;4970633;28;20171;-78
2023/12/19 07:20:44;;;;;;;0.20;0.20;;;;;;;;;;4953780;28;20058;-79
2023/12/19 07:23:11;;;;;;;0.10;0.10;;;;;;;;;;4962338;28;20526;-79
2023/12/19 07:25:37;;;;;;;0.40;0.40;;;;;;;;;;4969827;28;20075;-79
2023/12/19 07:28:04;;;;;;;0.32;0.32;;;;;;;;;;4968374;28;20394;-79
2023/12/19 07:30:30;;;;;;;0.57;0.57;;;;;;;;;;4975070;28;20536;-79
2023/12/19 07:32:59;;;;;;;0.15;0.15;;;;;;;;;;4970474;28;20051;-76
2023/12/19 07:35:25;;;;;;;0.22;0.22;;;;;;;;;;4969222;28;20054;-80
2023/12/19 07:37:59;;;;;;;0.70;0.70;;;;;;;;;;4965948;28;20051;-77
2023/12/19 07:40:26;;;;;;;0.40;0.40;;;;;;;;;;4971279;28;20055;-80
2023/12/19 07:42:52;;;;;;;0.20;0.20;;;;;;;;;;4979544;28;20055;-80
2023/12/19 07:45:19;;;;;;;2.00;1.85;;;;;;;;;;4971370;28;20079;-79
2023/12/19 07:47:45;;;;;;;0.30;0.30;;;;;;;;;;4965858;28;20059;-78
2023/12/19 07:50:11;;;;;;;0.30;0.30;;;;;;;;;;4963242;28;20110;-80
2023/12/19 07:52:38;;;;;;;0.20;0.20;;;;;;;;;;4969147;28;20051;-77
2023/12/19 07:55:09;;;;;;;0.32;0.32;;;;;;;;;;4967970;28;20079;-80
2023/12/19 07:57:37;;;;;;;0.17;0.17;;;;;;;;;;4972252;28;20051;-78
2023/12/19 08:00:04;;;;;;;0.10;0.10;;;;;;;;;;4973208;28;20051;-78
2023/12/19 08:02:32;;;;;;;0.45;0.45;;;;;;;;;;4980450;28;20090;-78
2023/12/19 08:04:58;;;;;;;0.10;0.10;;;;;;;;;;4984138;28;20138;-78
2023/12/19 08:07:26;;;;;;;0.10;0.10;;;;;;;;;;4963188;28;20069;-80
2023/12/19 08:09:53;;;;;;;0.73;0.73;;;;;;;;;;4972295;28;20063;-78
2023/12/19 08:12:19;;;;;;;0.20;0.20;;;;;;;;;;4967367;28;20051;-79
2023/12/19 08:14:47;;;;;;;1.17;1.00;;;;;;;;;;4972724;28;20507;-79
2023/12/19 08:17:13;;;;;;;0.10;0.10;;;;;;;;;;4971777;28;20059;-80
2023/12/19 08:19:39;;;;;;;0.20;0.20;;;;;;;;;;4986524;28;20062;-80
2023/12/19 08:22:06;;;;;;;0.22;0.22;;;;;;;;;;4970616;28;20059;-79
2023/12/19 08:24:32;;;;;;;0.30;0.30;;;;;;;;;;4973541;28;20051;-79
2023/12/19 08:26:59;;;;;;;0.43;0.43;;;;;;;;;;4967821;28;20051;-79
2023/12/19 08:29:25;;;;;;;0.35;0.35;;;;;;;;;;4970677;28;20062;-77
2023/12/19 08:31:52;;;;;;;0.10;0.10;;;;;;;;;;4973576;28;20856;-79
2023/12/19 08:34:19;;;;;;;0.88;0.85;;;;;;;;;;4971501;28;20521;-79
2023/12/19 08:36:46;;;;;;;1.17;1.05;;;;;;;;;;4978320;28;20960;-79
2023/12/19 08:39:12;;;;;;;0.98;0.50;;;;;;;;;;4988388;28;20061;-79
2023/12/19 08:41:39;;;;;;;1.85;1.17;;;;;;;;;;4958039;28;20059;-78
2023/12/19 08:44:05;;;;;;;0.10;0.10;;;;;;;;;;4973919;28;20051;-79
2023/12/19 08:46:33;;;;;;;0.20;0.20;;;;;;;;;;4964075;28;20146;-79
2023/12/19 08:49:00;;;;;;;0.47;0.43;;;;;;;;;;4967025;28;20055;-79
2023/12/19 08:51:27;;;;;;;0.38;0.38;;;;;;;;;;4980047;28;20059;-79
2023/12/19 08:53:54;;;;;;;0.15;0.15;;;;;;;;;;4971563;28;20138;-79
2023/12/19 08:56:20;;;;;;;1.40;0.73;;;;;;;;;;4976343;28;20130;-79
2023/12/19 08:58:48;;;;;;;0.95;0.95;;;;;;;;;;4969177;28;20152;-79
2023/12/19 09:01:15;;;;;;;0.20;0.20;;;;;;;;;;4971103;28;20062;-79
2023/12/19 09:03:42;;;;;;;0.35;0.35;;;;;;;;;;4968718;28;20051;-79
2023/12/19 09:06:08;;;;;;;0.20;0.20;;;;;;;;;;4969216;28;20059;-79
2023/12/19 09:08:34;;;;;;;0.10;0.10;;;;;;;;;;4970874;28;20051;-80
2023/12/19 09:11:01;;;;;;;0.57;0.57;;;;;;;;;;4965767;28;20054;-80
2023/12/19 09:13:28;;;;;;;0.10;0.10;;;;;;;;;;4969305;28;20791;-80
2023/12/19 09:15:54;;;;;;;0.28;0.28;;;;;;;;;;4969158;28;20146;-79
2023/12/19 09:18:24;;;;;;;0.20;0.20;;;;;;;;;;4967448;28;20522;-80
2023/12/19 09:20:53;;;;;;;0.28;0.28;;;;;;;;;;4981035;23;20050;-77
2023/12/19 09:23:20;;;;;;;0.95;0.68;;;;;;;;;;4988863;28;20089;-77
2023/12/19 09:25:46;;;;;;;0.10;0.10;;;;;;;;;;4975410;28;20114;-75
2023/12/19 09:28:12;;;;;;;0.10;0.10;;;;;;;;;;4957179;28;20579;-76
2023/12/19 09:30:39;;;;;;;0.10;0.10;;;;;;;;;;4951725;28;20059;-78
2023/12/19 09:33:06;;;;;;;0.65;0.65;;;;;;;;;;4962091;28;20043;-78
2023/12/19 09:35:35;;;;;;;0.93;0.80;;;;;;;;;;4962114;28;20139;-77
2023/12/19 09:38:03;;;;;;;0.10;0.10;;;;;;;;;;4967422;28;20063;-78
2023/12/19 09:40:30;;;;;;;0.10;0.10;;;;;;;;;;4963707;28;20821;-77
2023/12/19 09:43:00;;;;;;;0.10;0.10;;;;;;;;;;4951510;28;20047;-77
2023/12/19 09:45:26;;;;;;;0.10;0.10;;;;;;;;;;4957196;28;20066;-78
2023/12/19 09:48:00;;;;;;;0.88;0.85;;;;;;;;;;4948570;28;20066;-78
2023/12/19 09:50:49;;;;;;;0.10;0.10;;;;;;;;;;4951320;28;20044;-79
2023/12/19 09:53:24;;;;;;;2.53;1.30;;;;;;;;;;4917377;28;20058;-77
2023/12/19 09:56:01;;;;;;;0.85;0.85;;;;;;;;;;4953068;28;20059;-77
2023/12/19 09:58:31;;;;;;;0.33;0.33;;;;;;;;;;4951934;28;20111;-78
2023/12/19 10:00:58;;;;;;;0.40;0.28;;;;;;;;;;4971763;28;20062;-78
2023/12/19 10:03:27;;;;;;;0.50;0.50;;;;;;;;;;4964402;28;20050;-78
2023/12/19 10:05:54;;;;;;;1.38;0.70;;;;;;;;;;4968448;28;20087;-78
2023/12/19 10:08:21;;;;;;;0.20;0.20;;;;;;;;;;4951778;28;20055;-78
2023/12/19 10:10:49;;;;;;;0.38;0.38;;;;;;;;;;4948731;28;20568;-77
2023/12/19 10:13:25;;;;;;;0.10;0.10;;;;;;;;;;4964351;28;20060;-77
2023/12/19 10:16:06;;;;;;;0.25;0.25;;;;;;;;;;4961820;28;20067;-77
2023/12/19 10:18:58;;;;;;;0.10;0.10;;;;;;;;;;4969048;28;20062;-77
2023/12/19 10:21:28;;;;;;;0.10;0.10;;;;;;;;;;4970826;28;20576;-78
2023/12/19 10:24:09;;;;;;;0.60;0.57;;;;;;;;;;4972627;28;20059;-79
2023/12/19 10:26:36;;;;;;;0.10;0.10;;;;;;;;;;4958286;28;20952;-79
2023/12/19 10:29:03;;;;;;;0.10;0.10;;;;;;;;;;4956938;28;20864;-81
2023/12/19 10:31:29;;;;;;;0.52;0.52;;;;;;;;;;4970885;28;20059;-81
2023/12/19 10:33:56;;;;;;;0.30;0.30;;;;;;;;;;4964305;28;20054;-81
2023/12/19 10:36:26;;;;;;;0.20;0.20;;;;;;;;;;4977521;28;20059;-80
2023/12/19 10:38:53;;;;;;;0.32;0.32;;;;;;;;;;4978805;28;20134;-80
2023/12/19 10:41:24;;;;;;;0.10;0.10;;;;;;;;;;4959871;28;20051;-81
2023/12/19 10:43:51;;;;;;;0.65;0.65;;;;;;;;;;4962466;28;20055;-81
2023/12/19 10:46:19;;;;;;;0.55;0.52;;;;;;;;;;4973420;28;20067;-80
2023/12/19 10:48:47;;;;;;;0.10;0.10;;;;;;;;;;4985841;28;20188;-81
2023/12/19 10:51:16;;;;;;;4.75;1.05;;;;;;;;;;4977785;28;20056;-81
2023/12/19 10:53:49;;;;;;;0.10;0.10;;;;;;;;;;4960893;28;20066;-83
2023/12/19 10:56:24;;;;;;;0.10;0.10;;;;;;;;;;4957414;28;20063;-83
2023/12/19 10:58:56;;;;;;;0.35;0.35;;;;;;;;;;4970805;28;20107;-83
2023/12/19 11:01:24;;;;;;;0.10;0.10;;;;;;;;;;4960517;28;20051;-83
2023/12/19 11:03:54;;;;;;;0.38;0.38;;;;;;;;;;4959083;28;20065;-83
2023/12/19 11:06:22;;;;;;;0.10;0.10;;;;;;;;;;4975698;28;20066;-83
2023/12/19 11:08:51;;;;;;;0.10;0.10;;;;;;;;;;4958193;28;20066;-83
2023/12/19 11:11:23;;;;;;;0.38;0.38;;;;;;;;;;4954709;28;20857;-82
2023/12/19 11:13:51;;;;;;;0.10;0.10;;;;;;;;;;4970566;28;20063;-84
2023/12/19 11:16:34;;;;;;;0.10;0.10;;;;;;;;;;4960689;28;20051;-82
2023/12/19 11:19:10;;;;;;;0.13;0.13;;;;;;;;;;4951377;28;20055;-83
2023/12/19 11:21:41;;;;;;;0.30;0.30;;;;;;;;;;4955660;28;20139;-83
2023/12/19 11:24:22;;;;;;;0.63;0.63;;;;;;;;;;4974881;28;20058;-84
2023/12/19 11:26:49;;;;;;;0.10;0.10;;;;;;;;;;4953765;28;20052;-84
2023/12/19 11:29:34;;;;;;;1.27;1.17;;;;;;;;;;4968463;28;20143;-84
2023/12/19 11:32:00;;;;;;;0.10;0.10;;;;;;;;;;4977518;28;20066;-84
2023/12/19 11:34:27;;;;;;;0.10;0.10;;;;;;;;;;4949299;28;20099;-84
2023/12/19 11:37:03;;;;;;;0.10;0.10;;;;;;;;;;4954288;28;20062;-84
2023/12/19 11:39:31;;;;;;;0.10;0.10;;;;;;;;;;4955260;28;20059;-83
2023/12/19 11:41:58;;;;;;;0.10;0.10;;;;;;;;;;4953402;28;20063;-84
2023/12/19 11:44:34;;;;;;;0.10;0.10;;;;;;;;;;4955310;28;20055;-84
2023/12/19 11:47:21;;;;;;;0.80;0.65;;;;;;;;;;4957011;28;20055;-83
2023/12/19 11:49:47;;;;;;;1.17;1.10;;;;;;;;;;4978478;28;20574;-84
2023/12/19 11:52:36;;;;;;;0.30;0.30;;;;;;;;;;4960286;28;20126;-84
2023/12/19 11:55:06;;;;;;;0.10;0.10;;;;;;;;;;4972240;28;20067;-84
2023/12/19 11:57:33;;;;;;;0.10;0.10;;;;;;;;;;4953408;28;20066;-83
2023/12/19 12:00:01;;;;;;;0.10;0.10;;;;;;;;;;4970911;28;20040;-82
2023/12/19 12:02:34;;;;;;;0.73;0.47;;;;;;;;;;4953553;28;20050;-82
2023/12/19 12:05:05;;;;;;;0.20;0.20;;;;;;;;;;4969790;28;20050;-84
2023/12/19 12:07:38;;;;;;;0.10;0.10;;;;;;;;;;4954840;28;20198;-82
2023/12/19 12:10:06;;;;;;;0.20;0.20;;;;;;;;;;4944417;28;20059;-81
2023/12/19 12:12:33;;;;;;;0.60;0.60;;;;;;;;;;4966279;28;20059;-83
2023/12/19 12:15:28;;;;;;;0.20;0.20;;;;;;;;;;4948034;28;20046;-82
2023/12/19 12:18:04;;;;;;;0.10;0.10;;;;;;;;;;4972191;28;20055;-83
2023/12/19 12:20:33;;;;;;;0.10;0.10;;;;;;;;;;4968649;28;20597;-83
2023/12/19 12:23:03;;;;;;;0.17;0.17;;;;;;;;;;4957475;28;20062;-84
2023/12/19 12:28:48;;;;;;;0.88;0.82;;;;;;;;;;4969036;28;20054;-83
2023/12/19 12:31:15;;;;;;;0.10;0.10;;;;;;;;;;4969835;28;20523;-83
2023/12/19 12:33:41;;;;;;;0.10;0.10;;;;;;;;;;4968492;28;20082;-83
2023/12/19 12:36:10;;;;;;;0.10;0.10;;;;;;;;;;4951974;28;20052;-82
2023/12/19 12:38:37;;;;;;;0.10;0.10;;;;;;;;;;4950108;28;20530;-83
2023/12/19 12:41:04;;;;;;;0.10;0.10;;;;;;;;;;4967790;28;20070;-82
2023/12/19 12:43:49;;;;;;;0.40;0.40;;;;;;;;;;4953094;28;20055;-83
2023/12/19 12:46:30;;;;;;;0.10;0.10;;;;;;;;;;4978890;28;20518;-83
2023/12/19 12:49:53;;;;;;;0.63;0.63;;;;;;;;;;4941037;28;20068;-83
2023/12/19 12:52:20;;;;;;;0.40;0.40;;;;;;;;;;4966000;28;20056;-82
2023/12/19 12:54:46;;;;;;;0.10;0.10;;;;;;;;;;4952149;28;20054;-82
2023/12/19 12:57:14;;;;;;;0.10;0.10;;;;;;;;;;4951866;28;20043;-82
2023/12/19 12:59:41;;;;;;;0.10;0.10;;;;;;;;;;4956561;28;20845;-82
2023/12/19 13:02:11;;;;;;;0.10;0.10;;;;;;;;;;4979384;28;20528;-82
2023/12/19 13:04:40;;;;;;;2.45;2.25;;;;;;;;;;4942330;28;20044;-82
2023/12/19 13:07:08;;;;;;;0.10;0.10;;;;;;;;;;4967496;28;20477;-82
2023/12/19 13:09:35;;;;;;;0.20;0.20;;;;;;;;;;4975270;28;20051;-80
2023/12/19 13:12:04;;;;;;;0.10;0.10;;;;;;;;;;4967650;28;20057;-80
2023/12/19 13:14:30;;;;;;;0.10;0.10;;;;;;;;;;4957218;28;20059;-80
2023/12/19 13:16:57;;;;;;;0.10;0.10;;;;;;;;;;4950604;28;20154;-81
2023/12/19 13:19:23;;;;;;;0.10;0.10;;;;;;;;;;4975265;28;20055;-81
2023/12/19 13:21:50;;;;;;;0.10;0.10;;;;;;;;;;4957240;28;20063;-81
2023/12/19 13:24:17;;;;;;;0.20;0.20;;;;;;;;;;4953448;28;20051;-83
2023/12/19 13:26:45;;;;;;;0.10;0.10;;;;;;;;;;4967087;28;20509;-82
2023/12/19 13:29:12;;;;;;;0.10;0.10;;;;;;;;;;4959360;28;20051;-82
2023/12/19 13:31:38;;;;;;;0.20;0.20;;;;;;;;;;4957535;28;20059;-82
2023/12/19 13:34:05;;;;;;;0.10;0.10;;;;;;;;;;4955178;28;20110;-83
2023/12/19 13:36:35;;;;;;;0.10;0.10;;;;;;;;;;4959811;28;20055;-82
2023/12/19 13:39:05;;;;;;;0.10;0.10;;;;;;;;;;4951890;28;20097;-83
2023/12/19 13:41:32;;;;;;;0.10;0.10;;;;;;;;;;4969631;28;22402;-82
2023/12/19 13:43:59;;;;;;;0.10;0.10;;;;;;;;;;4948261;28;20088;-83
2023/12/19 13:46:25;;;;;;;0.20;0.20;;;;;;;;;;4973152;28;20062;-83
2023/12/19 13:48:52;;;;;;;0.10;0.10;;;;;;;;;;4973223;28;20522;-82
2023/12/19 13:51:18;;;;;;;0.20;0.20;;;;;;;;;;4971856;28;20916;-82
2023/12/19 13:53:46;;;;;;;0.10;0.10;;;;;;;;;;4961212;28;20055;-82
2023/12/19 13:56:13;;;;;;;0.10;0.10;;;;;;;;;;4979344;28;20575;-83
2023/12/19 13:58:39;;;;;;;0.10;0.10;;;;;;;;;;4966238;28;20061;-82
2023/12/19 14:01:08;;;;;;;0.90;0.90;;;;;;;;;;4959962;28;20142;-82
2023/12/19 14:03:34;;;;;;;0.10;0.10;;;;;;;;;;4974460;28;20078;-81
2023/12/19 14:06:01;;;;;;;0.10;0.10;;;;;;;;;;4985604;28;20110;-81
2023/12/19 14:08:27;;;;;;;0.10;0.10;;;;;;;;;;4982294;28;20094;-81
2023/12/19 14:10:54;;;;;;;0.20;0.20;;;;;;;;;;4955758;28;20059;-81
2023/12/19 14:13:21;;;;;;;0.17;0.17;;;;;;;;;;4954241;28;20055;-81
2023/12/19 14:15:53;;;;;;;0.10;0.10;;;;;;;;;;4971644;28;20133;-81
2023/12/19 14:18:20;;;;;;;0.10;0.10;;;;;;;;;;4956092;28;20063;-82
2023/12/19 14:20:47;;;;;;;0.10;0.10;;;;;;;;;;4979584;28;20093;-83
2023/12/19 14:23:14;;;;;;;0.10;0.10;;;;;;;;;;4972763;28;20051;-83
2023/12/19 14:25:40;;;;;;;0.10;0.10;;;;;;;;;;4954890;28;20146;-83
2023/12/19 14:28:06;;;;;;;0.10;0.10;;;;;;;;;;4971566;28;20165;-83
2023/12/19 14:30:33;;;;;;;0.10;0.10;;;;;;;;;;4970534;28;20061;-83
2023/12/19 14:32:59;;;;;;;0.10;0.10;;;;;;;;;;4970333;28;20058;-83
2023/12/19 14:35:26;;;;;;;0.10;0.10;;;;;;;;;;4945082;28;20063;-83
2023/12/19 14:37:52;;;;;;;1.00;0.63;;;;;;;;;;4952418;28;20106;-83
2023/12/19 14:40:19;;;;;;;0.10;0.10;;;;;;;;;;4948724;28;20066;-83
2023/12/19 14:42:45;;;;;;;0.10;0.10;;;;;;;;;;4949262;28;20055;-82
2023/12/19 14:45:12;;;;;;;0.10;0.10;;;;;;;;;;4949121;28;20415;-82
2023/12/19 14:47:39;;;;;;;0.10;0.10;;;;;;;;;;4962700;28;20103;-82
2023/12/19 14:50:09;;;;;;;0.10;0.10;;;;;;;;;;4952395;28;20063;-82
2023/12/19 14:52:35;;;;;;;0.10;0.10;;;;;;;;;;4959500;28;20056;-82